Time;durP1;ratioP1;P1;durP2;ratioP2;P2;SDS_P1;SDS_P2;PMS_P1;PMS_P2;Temp;Humidity;BMP_temperature;BMP_pressure;BME280_temperature;BME280_humidity;BME280_pressure;Samples;Min_cycle;Max_cycle;Signal;HPM_P1;HPM_P2
2022/08/05 04:08:03;;;;;;;0.10;0.10;;;;;;;21.94;50.00;101184.22;5065711;28;20386;-88
2022/08/05 04:10:28;;;;;;;0.10;0.10;;;;;;;21.97;49.49;101173.38;5049172;28;20032;-87
2022/08/05 04:12:55;;;;;;;0.10;0.10;;;;;;;21.97;49.80;101176.03;5050011;28;20090;-86
2022/08/05 04:15:20;;;;;;;0.05;0.05;;;;;;;22.02;49.48;101158.03;5032549;28;20025;-84
2022/08/05 04:17:46;;;;;;;0.30;0.30;;;;;;;22.29;49.37;101180.25;5049647;28;21014;-85
2022/08/05 04:20:37;;;;;;;0.32;0.32;;;;;;;22.34;48.76;101170.16;5049317;28;20029;-84
2022/08/05 04:23:02;;;;;;;0.20;0.20;;;;;;;22.46;49.41;101186.66;5067516;28;20057;-83
2022/08/05 04:25:28;;;;;;;0.15;0.15;;;;;;;22.46;48.47;101179.59;5066106;28;20083;-83
2022/08/05 04:27:53;;;;;;;0.10;0.10;;;;;;;22.47;48.88;101181.25;5049721;28;20033;-83
2022/08/05 04:30:19;;;;;;;0.32;0.32;;;;;;;22.51;48.68;101181.78;5067271;28;20024;-83
2022/08/05 04:32:44;;;;;;;0.10;0.10;;;;;;;22.47;48.73;101173.34;5047716;28;20029;-86
2022/08/05 04:35:10;;;;;;;0.20;0.20;;;;;;;22.72;49.04;101181.66;5049097;28;20021;-83
2022/08/05 04:37:35;;;;;;;0.10;0.10;;;;;;;22.74;48.71;101185.00;5049398;28;20570;-83
2022/08/05 04:40:01;;;;;;;0.10;0.10;;;;;;;23.12;48.31;101190.25;5063081;28;20115;-82
2022/08/05 04:42:26;;;;;;;0.10;0.10;;;;;;;23.35;47.75;101196.00;5052881;28;20414;-86
2022/08/05 04:44:52;;;;;;;0.15;0.15;;;;;;;23.39;47.29;101192.09;5037551;28;20029;-86
2022/08/05 04:47:17;;;;;;;0.10;0.10;;;;;;;23.26;48.32;101180.19;5043694;28;20025;-82
2022/08/05 04:49:43;;;;;;;0.20;0.20;;;;;;;23.53;47.17;101187.34;5033460;28;20033;-83
2022/08/05 04:52:08;;;;;;;0.30;0.20;;;;;;;23.40;47.45;101179.72;5052164;28;20033;-81
2022/08/05 04:54:34;;;;;;;0.10;0.10;;;;;;;23.33;47.69;101192.69;5048978;28;20071;-84
2022/08/05 04:56:59;;;;;;;0.55;0.30;;;;;;;23.40;47.71;101192.91;5057154;28;20037;-86
2022/08/05 04:59:25;;;;;;;0.10;0.10;;;;;;;23.31;47.50;101181.44;5044378;28;20060;-85
2022/08/05 05:01:50;;;;;;;0.10;0.10;;;;;;;23.50;47.46;101191.09;5036892;28;20414;-86
2022/08/05 05:04:16;;;;;;;0.15;0.15;;;;;;;23.60;47.98;101183.19;5037585;28;20067;-88
2022/08/05 05:06:41;;;;;;;0.28;0.28;;;;;;;23.85;47.52;101181.63;5054763;28;20048;-90
2022/08/05 05:09:07;;;;;;;0.10;0.10;;;;;;;23.91;46.86;101191.63;5040047;28;20119;-88
2022/08/05 05:11:32;;;;;;;0.20;0.20;;;;;;;23.92;47.04;101180.06;5047764;28;20117;-90
2022/08/05 05:13:58;;;;;;;0.32;0.30;;;;;;;24.09;47.45;101189.84;5040626;28;20032;-89
2022/08/05 05:16:23;;;;;;;0.20;0.20;;;;;;;23.99;46.64;101167.91;5046840;28;20522;-87
2022/08/05 05:18:49;;;;;;;0.20;0.20;;;;;;;24.31;47.73;101189.44;5027528;28;20111;-87
2022/08/05 05:21:15;;;;;;;0.20;0.20;;;;;;;24.43;46.15;101182.13;5038190;28;20112;-90
2022/08/05 05:23:40;;;;;;;0.10;0.10;;;;;;;24.47;46.90;101178.16;5031964;28;20028;-93
2022/08/05 05:26:06;;;;;;;0.47;0.47;;;;;;;24.71;45.83;101180.22;5014118;28;20210;-92
2022/08/05 05:28:31;;;;;;;0.30;0.30;;;;;;;24.96;45.71;101183.03;5028404;28;20040;-91
2022/08/05 05:30:57;;;;;;;0.10;0.10;;;;;;;24.85;46.37;101171.69;5019800;28;20499;-87
2022/08/05 05:33:22;;;;;;;0.13;0.13;;;;;;;24.93;45.74;101170.09;5039622;28;20091;-88
2022/08/05 05:35:48;;;;;;;0.22;0.22;;;;;;;25.09;46.01;101172.91;5033051;28;20034;-87
2022/08/05 05:38:14;;;;;;;0.10;0.10;;;;;;;25.29;45.01;101190.22;5035253;28;20029;-85
2022/08/05 05:40:40;;;;;;;0.38;0.25;;;;;;;25.47;44.57;101182.22;5040374;28;20022;-90
2022/08/05 05:43:06;;;;;;;0.25;0.25;;;;;;;25.41;43.74;101173.06;5010906;28;20605;-93
2022/08/05 05:45:31;;;;;;;0.28;0.28;;;;;;;25.37;43.13;101177.03;5039949;28;20029;-85
2022/08/05 05:47:57;;;;;;;0.17;0.17;;;;;;;25.53;43.68;101189.50;5020824;28;20112;-92
2022/08/05 05:50:23;;;;;;;0.40;0.25;;;;;;;25.46;41.59;101185.81;5027807;28;20398;-92
2022/08/05 05:52:48;;;;;;;0.10;0.10;;;;;;;25.41;42.18;101185.50;5043573;28;20032;-91
2022/08/05 05:55:15;;;;;;;0.30;0.30;;;;;;;25.54;42.99;101187.69;5025064;28;20029;-89
2022/08/05 05:57:45;;;;;;;0.20;0.20;;;;;;;25.51;42.92;101178.25;5024971;28;20033;-89
2022/08/05 06:00:15;;;;;;;0.50;0.30;;;;;;;25.81;43.13;101173.44;5018385;28;20029;-88
2022/08/05 06:02:41;;;;;;;0.25;0.25;;;;;;;26.03;42.39;101194.84;5011007;28;20459;-92
2022/08/05 06:05:07;;;;;;;0.20;0.20;;;;;;;25.98;41.19;101175.97;5020884;28;20136;-85
2022/08/05 06:07:32;;;;;;;0.10;0.10;;;;;;;25.99;41.33;101188.22;5020074;28;20154;-88
2022/08/05 06:09:58;;;;;;;0.20;0.20;;;;;;;26.01;41.45;101193.38;5021609;28;20482;-87
2022/08/05 06:12:23;;;;;;;0.52;0.52;;;;;;;26.13;41.19;101202.66;5033699;28;20062;-88
2022/08/05 06:14:49;;;;;;;0.35;0.25;;;;;;;26.03;40.37;101178.94;5034901;28;20048;-87
2022/08/05 06:17:14;;;;;;;0.30;0.30;;;;;;;25.81;40.17;101195.47;5032543;28;20524;-89
2022/08/05 06:19:40;;;;;;;0.20;0.20;;;;;;;25.86;40.43;101187.88;5018967;28;20071;-92
2022/08/05 06:22:06;;;;;;;0.20;0.20;;;;;;;25.94;41.17;101206.44;5042938;28;20036;-91
2022/08/05 06:24:32;;;;;;;0.10;0.10;;;;;;;26.13;40.73;101199.19;5017768;28;20037;-88
2022/08/05 06:26:58;;;;;;;0.17;0.17;;;;;;;26.10;40.00;101196.88;5035697;28;20112;-85
2022/08/05 06:29:23;;;;;;;0.20;0.20;;;;;;;26.13;40.77;101191.22;5036872;28;20112;-94
2022/08/05 06:31:49;;;;;;;0.13;0.13;;;;;;;26.14;40.49;101179.63;5029604;28;20032;-94
2022/08/05 06:34:14;;;;;;;0.10;0.10;;;;;;;26.22;40.33;101183.13;5031559;28;20093;-96
2022/08/05 06:36:40;;;;;;;0.30;0.30;;;;;;;26.29;39.72;101193.94;5021729;28;20092;-91
2022/08/05 06:39:05;;;;;;;0.10;0.10;;;;;;;26.24;39.82;101185.63;5022364;28;20037;-86
2022/08/05 06:41:31;;;;;;;0.57;0.57;;;;;;;26.55;40.57;101205.28;5016677;28;20430;-84
2022/08/05 06:43:56;;;;;;;0.13;0.13;;;;;;;26.63;40.91;101192.97;5027916;28;20068;-86
2022/08/05 06:46:22;;;;;;;0.20;0.20;;;;;;;26.79;39.22;101199.13;5025857;28;20091;-87
2022/08/05 06:48:47;;;;;;;0.32;0.32;;;;;;;26.88;42.43;101211.41;5023221;28;20022;-91
2022/08/05 06:51:13;;;;;;;0.25;0.25;;;;;;;26.96;39.62;101210.56;5033944;28;20154;-91
2022/08/05 06:53:38;;;;;;;0.10;0.10;;;;;;;26.95;39.29;101197.47;5019700;28;20501;-91
2022/08/05 06:56:04;;;;;;;0.20;0.20;;;;;;;27.04;38.84;101215.91;5012771;28;20075;-91
2022/08/05 06:58:30;;;;;;;0.13;0.13;;;;;;;27.22;38.96;101212.19;5018674;28;20032;-87
2022/08/05 07:01:03;;;;;;;0.10;0.10;;;;;;;27.28;40.66;101206.22;5024610;28;20033;-87
2022/08/05 07:03:29;;;;;;;0.20;0.20;;;;;;;27.15;38.69;101181.03;5032590;28;20025;-86
2022/08/05 07:05:54;;;;;;;0.28;0.28;;;;;;;27.42;38.85;101197.53;5033519;28;20584;-84
2022/08/05 07:08:21;;;;;;;0.10;0.10;;;;;;;27.59;38.22;101204.44;5019161;28;20037;-85
2022/08/05 07:10:47;;;;;;;0.22;0.22;;;;;;;27.66;37.83;101215.28;5031324;28;20033;-89
2022/08/05 07:18:40;;;;;;;0.25;0.25;;;;;;;27.65;37.38;101203.81;5020395;28;20537;-86
2022/08/05 07:21:06;;;;;;;0.60;0.47;;;;;;;27.83;37.95;101202.75;5033934;28;20057;-89
2022/08/05 07:23:32;;;;;;;0.30;0.30;;;;;;;27.86;37.39;101200.56;5023873;28;20020;-90
2022/08/05 07:25:57;;;;;;;0.20;0.20;;;;;;;27.82;36.45;101191.25;5021806;28;20033;-88
2022/08/05 07:28:24;;;;;;;0.30;0.30;;;;;;;27.96;37.19;101189.69;5035997;28;20033;-90
2022/08/05 07:30:49;;;;;;;0.30;0.30;;;;;;;28.10;35.77;101207.56;5011721;28;20029;-92
2022/08/05 07:33:15;;;;;;;0.38;0.38;;;;;;;28.10;36.25;101202.22;5045191;28;20025;-86
2022/08/05 07:35:40;;;;;;;0.20;0.20;;;;;;;28.15;36.10;101205.22;5033593;28;20037;-87
2022/08/05 07:38:06;;;;;;;0.20;0.20;;;;;;;28.27;36.84;101203.78;5026371;28;20096;-91
2022/08/05 07:40:32;;;;;;;0.30;0.30;;;;;;;28.34;37.53;101192.50;5047445;28;20032;-89
2022/08/05 07:42:57;;;;;;;0.30;0.30;;;;;;;28.58;36.77;101198.44;5051968;28;20037;-86
2022/08/05 07:45:23;;;;;;;0.15;0.15;;;;;;;28.63;35.52;101191.75;5019735;28;20029;-86
2022/08/05 07:47:48;;;;;;;0.32;0.32;;;;;;;28.72;36.65;101202.16;5022046;28;20044;-93
2022/08/05 07:50:14;;;;;;;0.20;0.20;;;;;;;28.77;35.92;101199.78;5017127;28;20032;-86
2022/08/05 07:52:40;;;;;;;0.20;0.20;;;;;;;28.94;35.53;101199.66;5025156;28;20033;-86
2022/08/05 07:55:06;;;;;;;0.20;0.20;;;;;;;29.02;36.13;101207.59;5018943;28;20057;-86
2022/08/05 07:57:32;;;;;;;0.30;0.22;;;;;;;29.16;34.66;101204.09;5023382;28;20045;-91
2022/08/05 07:59:57;;;;;;;0.20;0.20;;;;;;;29.27;35.30;101198.31;5021456;28;20033;-88
2022/08/05 08:02:27;;;;;;;0.20;0.20;;;;;;;29.33;34.65;101189.59;5024221;28;20128;-88
2022/08/05 08:04:52;;;;;;;0.75;0.40;;;;;;;29.43;33.72;101194.66;5025396;28;20056;-87
2022/08/05 08:07:18;;;;;;;0.20;0.20;;;;;;;29.59;32.95;101204.31;5017392;28;20499;-85
2022/08/05 08:09:44;;;;;;;0.20;0.20;;;;;;;29.54;33.20;101204.03;5037206;28;20033;-85
2022/08/05 08:12:12;;;;;;;0.32;0.32;;;;;;;29.69;33.37;101204.84;5037911;28;20029;-87
2022/08/05 08:14:38;;;;;;;0.15;0.15;;;;;;;29.82;33.35;101210.34;5032119;28;20403;-87
2022/08/05 08:17:03;;;;;;;0.17;0.17;;;;;;;29.95;33.48;101194.50;5032264;28;20152;-85
2022/08/05 08:19:29;;;;;;;0.20;0.20;;;;;;;30.10;32.61;101207.84;5032534;28;20037;-85
2022/08/05 08:21:54;;;;;;;0.20;0.20;;;;;;;30.22;32.65;101205.50;5016377;28;20030;-85
2022/08/05 08:24:20;;;;;;;0.20;0.20;;;;;;;30.50;32.95;101189.53;5031649;28;20079;-84
2022/08/05 08:26:45;;;;;;;0.10;0.10;;;;;;;30.50;32.27;101187.69;5007409;28;20041;-83
2022/08/05 08:29:11;;;;;;;0.20;0.20;;;;;;;30.68;32.29;101184.59;5033351;28;20100;-85
2022/08/05 08:31:36;;;;;;;0.20;0.20;;;;;;;30.76;31.94;101194.28;5033120;28;20396;-82
2022/08/05 08:34:02;;;;;;;0.20;0.20;;;;;;;30.90;32.02;101188.03;5014061;28;20021;-85
2022/08/05 08:36:27;;;;;;;0.20;0.20;;;;;;;30.99;32.17;101192.22;5006678;28;20458;-88
2022/08/05 08:38:56;;;;;;;0.25;0.25;;;;;;;31.11;31.68;101179.97;5015911;28;20045;-87
2022/08/05 08:41:22;;;;;;;0.40;0.20;;;;;;;31.31;31.16;101176.59;5008230;28;20028;-86
2022/08/05 08:43:47;;;;;;;0.20;0.20;;;;;;;31.56;31.35;101183.13;5015427;28;20497;-86
2022/08/05 08:46:13;;;;;;;0.30;0.30;;;;;;;31.57;29.54;101167.91;5022956;28;20060;-86
2022/08/05 08:48:38;;;;;;;0.45;0.30;;;;;;;31.74;30.42;101173.69;5021121;28;20112;-87
2022/08/05 08:51:04;;;;;;;0.30;0.30;;;;;;;31.90;30.01;101184.91;5017891;28;20033;-87
2022/08/05 08:53:34;;;;;;;0.20;0.20;;;;;;;31.84;29.86;101179.50;5038035;28;20167;-88
2022/08/05 08:56:01;;;;;;;0.20;0.20;;;;;;;31.88;30.50;101181.59;5038723;28;20025;-88
2022/08/05 08:58:27;;;;;;;0.20;0.20;;;;;;;32.03;30.77;101176.06;5026705;28;20057;-93
2022/08/05 09:00:53;;;;;;;0.20;0.20;;;;;;;32.08;29.85;101164.78;5009986;28;20174;-87
2022/08/05 09:03:18;;;;;;;0.20;0.20;;;;;;;32.22;30.02;101177.97;5019144;28;20026;-88
2022/08/05 09:05:44;;;;;;;0.20;0.20;;;;;;;32.21;29.91;101160.25;5021070;28;20037;-92
2022/08/05 09:08:09;;;;;;;0.20;0.20;;;;;;;32.43;29.57;101168.13;5015495;28;20032;-88
2022/08/05 09:10:35;;;;;;;0.20;0.20;;;;;;;32.37;29.60;101148.38;5049853;28;20029;-90
2022/08/05 09:13:00;;;;;;;0.22;0.22;;;;;;;32.55;29.58;101150.44;5051141;28;20032;-84
2022/08/05 09:15:26;;;;;;;0.30;0.30;;;;;;;32.84;29.80;101153.69;5034859;28;20033;-84
2022/08/05 09:17:51;;;;;;;0.45;0.30;;;;;;;32.93;29.54;101147.91;5022189;28;20140;-85
2022/08/05 09:20:17;;;;;;;0.50;0.50;;;;;;;32.92;28.95;101138.22;5044016;28;20029;-84
2022/08/05 09:23:01;;;;;;;0.20;0.20;;;;;;;33.14;29.28;101154.03;5047735;28;20061;-84
2022/08/05 09:25:26;;;;;;;0.52;0.45;;;;;;;33.17;28.74;101154.47;5035900;28;20382;-84
2022/08/05 09:27:52;;;;;;;0.25;0.25;;;;;;;33.24;29.29;101143.72;5032869;28;20526;-84
2022/08/05 09:30:17;;;;;;;0.20;0.20;;;;;;;33.37;28.39;101149.06;5044002;28;20532;-84
2022/08/05 09:32:43;;;;;;;0.38;0.38;;;;;;;33.49;28.33;101146.53;5026608;28;20067;-84
2022/08/05 09:35:13;;;;;;;0.30;0.30;;;;;;;33.41;27.97;101152.13;5025705;28;20098;-84
2022/08/05 09:37:48;;;;;;;0.30;0.30;;;;;;;33.47;27.72;101137.88;5025988;28;20036;-84
2022/08/05 09:40:38;;;;;;;0.30;0.30;;;;;;;33.80;27.88;101143.88;5035185;28;20057;-83
2022/08/05 09:43:05;;;;;;;0.20;0.20;;;;;;;33.83;27.52;101113.97;5035671;28;20462;-83
2022/08/05 09:45:40;;;;;;;0.30;0.30;;;;;;;33.86;27.64;101126.94;5021177;28;21119;-83
2022/08/05 09:48:44;;;;;;;0.40;0.35;;;;;;;34.03;27.37;101139.88;5038032;28;20025;-84
2022/08/05 09:51:10;;;;;;;0.25;0.25;;;;;;;33.84;27.17;101088.75;4993306;28;20052;-84
2022/08/05 09:53:47;;;;;;;0.30;0.30;;;;;;;34.16;27.52;101127.16;5006448;28;20459;-84
2022/08/05 09:56:12;;;;;;;0.43;0.43;;;;;;;34.25;27.01;101108.91;5012692;28;20060;-85
2022/08/05 09:58:38;;;;;;;0.20;0.20;;;;;;;34.33;27.25;101103.28;5042317;28;20498;-86
2022/08/05 10:01:04;;;;;;;0.47;0.40;;;;;;;34.55;26.86;101100.22;5013082;28;20167;-85
2022/08/05 10:03:30;;;;;;;0.30;0.30;;;;;;;34.74;26.53;101110.75;5028181;28;20034;-82
2022/08/05 10:06:03;;;;;;;0.30;0.30;;;;;;;34.75;26.18;101114.28;5027420;28;20042;-81
2022/08/05 10:08:32;;;;;;;0.30;0.30;;;;;;;34.87;26.25;101107.09;5048635;28;20031;-90
2022/08/05 10:10:57;;;;;;;0.30;0.30;;;;;;;34.94;26.08;101123.19;5028845;28;20779;-84
2022/08/05 10:13:34;;;;;;;0.50;0.40;;;;;;;35.04;25.55;101116.25;5021654;28;20033;-83
2022/08/05 10:16:01;;;;;;;0.30;0.30;;;;;;;35.05;24.86;101104.44;5018941;28;20120;-84
2022/08/05 10:18:26;;;;;;;0.20;0.20;;;;;;;35.12;25.60;101099.00;5050427;28;20060;-84
2022/08/05 10:20:57;;;;;;;0.20;0.20;;;;;;;35.17;25.33;101104.50;5044474;28;20060;-83
2022/08/05 10:23:24;;;;;;;0.40;0.25;;;;;;;35.29;24.98;101096.50;5029664;28;20032;-83
2022/08/05 10:25:49;;;;;;;0.40;0.40;;;;;;;35.46;24.58;101100.22;5030266;28;20037;-90
2022/08/05 10:28:16;;;;;;;0.30;0.30;;;;;;;35.47;24.54;101095.66;5023638;28;20398;-81
2022/08/05 10:30:41;;;;;;;0.40;0.40;;;;;;;35.30;24.23;101068.53;5014515;28;20033;-84
2022/08/05 10:33:07;;;;;;;0.40;0.40;;;;;;;35.49;23.71;101083.63;5050040;28;20048;-83
2022/08/05 10:35:33;;;;;;;0.47;0.47;;;;;;;35.54;24.43;101080.25;5028946;28;20488;-87
2022/08/05 10:37:59;;;;;;;0.40;0.40;;;;;;;35.65;24.23;101074.09;5033243;28;20108;-85
2022/08/05 10:40:44;;;;;;;0.30;0.30;;;;;;;35.81;23.60;101076.13;5043354;28;20091;-83
2022/08/05 10:43:43;;;;;;;0.30;0.25;;;;;;;35.89;22.87;101070.44;5048313;28;20028;-83
2022/08/05 10:46:10;;;;;;;0.30;0.30;;;;;;;36.05;22.39;101055.47;5035722;28;20513;-85
2022/08/05 10:48:37;;;;;;;0.40;0.40;;;;;;;36.05;22.14;101060.84;5033586;28;20482;-82
2022/08/05 10:51:11;;;;;;;0.30;0.30;;;;;;;35.96;21.61;101072.19;5048714;28;20029;-81
2022/08/05 10:53:42;;;;;;;0.43;0.32;;;;;;;35.76;22.32;101050.94;5045858;28;20426;-86
2022/08/05 10:56:10;;;;;;;0.68;0.60;;;;;;;35.87;21.91;101047.47;5049885;28;20376;-83
2022/08/05 10:58:36;;;;;;;0.20;0.20;;;;;;;36.04;21.82;101048.44;5033422;28;20033;-83
2022/08/05 11:01:05;;;;;;;0.47;0.30;;;;;;;36.25;22.20;101048.91;5031588;28;20033;-83
2022/08/05 11:03:31;;;;;;;0.28;0.28;;;;;;;36.41;21.33;101041.00;5047546;28;20494;-86
2022/08/05 11:06:10;;;;;;;0.30;0.30;;;;;;;36.53;21.54;101045.53;5032254;28;20052;-86
2022/08/05 11:08:36;;;;;;;0.30;0.30;;;;;;;36.52;21.61;101025.84;5016984;28;20020;-84
2022/08/05 11:11:48;;;;;;;0.30;0.30;;;;;;;36.64;21.34;101042.81;5032828;28;20025;-84
2022/08/05 11:14:21;;;;;;;0.40;0.40;;;;;;;36.69;21.42;101040.25;5036779;28;20044;-85
2022/08/05 11:17:25;;;;;;;0.30;0.30;;;;;;;36.77;21.64;101044.44;5037307;28;20032;-85
2022/08/05 11:19:52;;;;;;;0.30;0.30;;;;;;;36.74;21.34;101032.25;5039255;28;20029;-88
2022/08/05 11:22:40;;;;;;;0.40;0.40;;;;;;;36.76;20.57;101029.31;5023344;28;20021;-87
2022/08/05 11:25:28;;;;;;;0.30;0.30;;;;;;;36.72;21.17;101033.56;5043544;28;20103;-87
2022/08/05 11:27:54;;;;;;;0.30;0.30;;;;;;;36.82;21.18;101019.47;5045653;28;20036;-86
2022/08/05 11:30:20;;;;;;;0.40;0.40;;;;;;;36.90;20.20;101014.53;5026984;28;20471;-89
2022/08/05 11:32:45;;;;;;;0.30;0.30;;;;;;;36.91;19.94;101007.28;5030470;28;20514;-89
2022/08/05 11:35:48;;;;;;;0.30;0.30;;;;;;;37.09;19.95;101025.97;5034438;28;20532;-92
2022/08/05 11:38:14;;;;;;;0.30;0.30;;;;;;;37.14;20.03;101015.25;5050438;28;20123;-88
2022/08/05 11:41:11;;;;;;;0.40;0.30;;;;;;;37.22;19.45;101022.97;5048927;28;20036;-86
2022/08/05 11:43:37;;;;;;;0.40;0.40;;;;;;;37.19;19.81;101004.59;5042039;28;20049;-87
2022/08/05 11:46:02;;;;;;;0.30;0.30;;;;;;;37.24;19.88;101014.63;5032644;28;20407;-87
2022/08/05 11:48:28;;;;;;;0.28;0.28;;;;;;;37.40;19.59;101015.75;5032757;28;20083;-88
2022/08/05 11:50:54;;;;;;;0.38;0.38;;;;;;;37.54;18.99;101008.97;5048144;28;20040;-86
2022/08/05 11:53:19;;;;;;;0.30;0.30;;;;;;;37.48;18.63;101010.78;5049134;28;20033;-86
2022/08/05 11:55:57;;;;;;;0.30;0.30;;;;;;;37.54;18.69;101011.69;5032248;28;20036;-85
2022/08/05 11:58:38;;;;;;;0.30;0.30;;;;;;;37.51;18.56;101010.28;5048912;28;21114;-86
2022/08/05 12:01:13;;;;;;;0.50;0.50;;;;;;;37.49;18.04;101003.50;5034112;28;20035;-85
2022/08/05 12:03:51;;;;;;;0.30;0.30;;;;;;;37.42;17.81;101009.06;5048916;28;20024;-87
2022/08/05 12:06:17;;;;;;;0.30;0.30;;;;;;;37.53;17.65;100996.56;5032635;28;20071;-84
2022/08/05 12:08:47;;;;;;;0.40;0.40;;;;;;;37.70;17.24;100991.16;5032054;28;20411;-84
2022/08/05 12:11:19;;;;;;;0.40;0.40;;;;;;;37.87;17.08;100986.63;5026093;28;20553;-85
2022/08/05 12:14:01;;;;;;;0.30;0.30;;;;;;;38.02;17.20;100999.50;5048447;28;20371;-86
2022/08/05 12:16:28;;;;;;;0.40;0.40;;;;;;;38.08;17.02;100982.31;5028455;28;20069;-85
2022/08/05 12:18:54;;;;;;;0.30;0.30;;;;;;;38.18;16.87;100979.75;5028934;28;20072;-82
2022/08/05 12:21:25;;;;;;;0.38;0.38;;;;;;;38.34;17.42;100981.59;5029498;28;20057;-85
2022/08/05 12:23:52;;;;;;;0.40;0.40;;;;;;;38.20;17.16;100976.81;5042024;28;20043;-89
2022/08/05 12:26:17;;;;;;;0.32;0.32;;;;;;;38.16;17.37;100973.78;5032428;28;20033;-84
2022/08/05 12:28:43;;;;;;;0.30;0.30;;;;;;;38.26;17.74;100973.97;5050888;28;20029;-86
2022/08/05 12:31:08;;;;;;;0.40;0.40;;;;;;;38.10;17.66;100954.00;5085995;28;20018;-86
2022/08/05 12:33:34;;;;;;;0.40;0.40;;;;;;;38.32;17.50;100966.72;5033817;28;20544;-86
2022/08/05 12:36:00;;;;;;;0.40;0.30;;;;;;;38.28;17.35;100968.31;5050947;28;20517;-86
2022/08/05 12:38:25;;;;;;;0.40;0.40;;;;;;;38.11;17.32;100947.50;5037581;28;20406;-83
2022/08/05 12:40:52;;;;;;;0.30;0.30;;;;;;;38.01;16.67;100924.97;5016195;28;20479;-85
2022/08/05 12:43:18;;;;;;;0.32;0.32;;;;;;;38.25;16.97;100956.13;5022930;28;20982;-86
2022/08/05 12:45:52;;;;;;;0.30;0.30;;;;;;;38.23;17.03;100963.63;5035392;28;20128;-84
2022/08/05 12:48:18;;;;;;;0.30;0.30;;;;;;;38.11;17.10;100944.81;5035477;28;20025;-84
2022/08/05 12:50:43;;;;;;;0.30;0.30;;;;;;;38.20;17.05;100957.91;5049740;28;20083;-85
2022/08/05 12:53:14;;;;;;;0.38;0.32;;;;;;;37.78;17.36;100950.28;5046183;28;20025;-86
2022/08/05 12:55:41;;;;;;;0.30;0.30;;;;;;;37.54;17.11;100933.41;5033107;28;20044;-89
2022/08/05 12:58:06;;;;;;;0.30;0.30;;;;;;;37.59;17.81;100944.31;5032568;28;20080;-85
2022/08/05 13:00:33;;;;;;;0.20;0.20;;;;;;;37.45;18.12;100934.88;5035614;28;20052;-85
2022/08/05 13:03:00;;;;;;;0.20;0.20;;;;;;;37.27;17.91;100927.84;5050390;28;20021;-83
2022/08/05 13:05:26;;;;;;;0.30;0.30;;;;;;;37.24;18.37;100934.53;5032520;28;20025;-84
2022/08/05 13:07:52;;;;;;;0.30;0.30;;;;;;;37.21;18.36;100937.72;5030137;28;20045;-84
2022/08/05 13:10:17;;;;;;;0.57;0.50;;;;;;;37.05;18.31;100925.84;5048896;28;20033;-89
2022/08/05 13:12:43;;;;;;;0.30;0.30;;;;;;;36.98;18.51;100930.56;5035552;28;20025;-87
2022/08/05 13:15:10;;;;;;;0.40;0.40;;;;;;;37.13;18.37;100935.41;5031886;28;20034;-89
2022/08/05 13:17:36;;;;;;;0.20;0.20;;;;;;;37.07;18.06;100928.31;5026460;28;20021;-91
2022/08/05 13:20:14;;;;;;;0.20;0.20;;;;;;;36.97;18.69;100922.72;5018608;28;20044;-89
2022/08/05 13:22:42;;;;;;;0.30;0.30;;;;;;;36.91;18.63;100913.72;5033335;28;20030;-89
2022/08/05 13:25:13;;;;;;;0.40;0.40;;;;;;;36.82;18.05;100920.53;5048860;28;20029;-87
2022/08/05 13:27:44;;;;;;;;;;;;;;;36.72;18.60;100915.78;5048151;28;20386;-87
2022/08/05 13:30:11;;;;;;;0.20;0.20;;;;;;;36.60;18.62;100914.19;5051135;28;20372;-94
2022/08/05 13:32:37;;;;;;;0.20;0.20;;;;;;;36.71;18.08;100911.44;5035916;28;20037;-93
2022/08/05 13:35:03;;;;;;;0.30;0.30;;;;;;;36.65;17.87;100908.88;5035964;28;20108;-90
